sensor_id;sensor_type;location;lat;lon;timestamp;pressure;altitude;pressure_sealevel;temperature;humidity
53758;BME280;39674;59.860;30.672;2023-03-26T00:02:32;99399.53;;;0.45;100.00
53758;BME280;39674;59.860;30.672;2023-03-26T00:05:16;99395.22;;;0.44;100.00
53758;BME280;39674;59.860;30.672;2023-03-26T00:14:56;99378.75;;;0.45;100.00
53758;BME280;39674;59.860;30.672;2023-03-26T00:17:39;99378.75;;;0.45;100.00
53758;BME280;39674;59.860;30.672;2023-03-26T00:20:57;99371.84;;;0.44;100.00
53758;BME280;39674;59.860;30.672;2023-03-26T00:23:31;99368.44;;;0.42;100.00
53758;BME280;39674;59.860;30.672;2023-03-26T00:26:40;99373.63;;;0.42;100.00
53758;BME280;39674;59.860;30.672;2023-03-26T00:29:30;99375.34;;;0.43;100.00
53758;BME280;39674;59.860;30.672;2023-03-26T00:32:08;99367.56;;;0.43;100.00
53758;BME280;39674;59.860;30.672;2023-03-26T00:34:54;99368.25;;;0.48;100.00
53758;BME280;39674;59.860;30.672;2023-03-26T00:37:34;99373.44;;;0.48;100.00
53758;BME280;39674;59.860;30.672;2023-03-26T00:40:18;99369.09;;;0.49;100.00
53758;BME280;39674;59.860;30.672;2023-03-26T00:43:25;99356.97;;;0.50;100.00
53758;BME280;39674;59.860;30.672;2023-03-26T00:46:40;99357.81;;;0.50;100.00
53758;BME280;39674;59.860;30.672;2023-03-26T00:49:12;99361.16;;;0.54;100.00
53758;BME280;39674;59.860;30.672;2023-03-26T00:52:09;99355.97;;;0.54;100.00
53758;BME280;39674;59.860;30.672;2023-03-26T00:55:11;99343.78;;;0.56;100.00
53758;BME280;39674;59.860;30.672;2023-03-26T00:57:46;99354.06;;;0.59;100.00
53758;BME280;39674;59.860;30.672;2023-03-26T01:00:38;99345.38;;;0.60;100.00
53758;BME280;39674;59.860;30.672;2023-03-26T01:03:25;99331.47;;;0.61;100.00
53758;BME280;39674;59.860;30.672;2023-03-26T01:06:13;99343.38;;;0.68;100.00
53758;BME280;39674;59.860;30.672;2023-03-26T01:11:53;99337.38;;;0.66;100.00
53758;BME280;39674;59.860;30.672;2023-03-26T01:14:23;99333.88;;;0.67;100.00
53758;BME280;39674;59.860;30.672;2023-03-26T01:17:03;99343.22;;;0.73;100.00
53758;BME280;39674;59.860;30.672;2023-03-26T01:19:49;99344.97;;;0.72;100.00
53758;BME280;39674;59.860;30.672;2023-03-26T01:22:35;99347.53;;;0.74;100.00
53758;BME280;39674;59.860;30.672;2023-03-26T01:25:17;99352.56;;;0.78;100.00
53758;BME280;39674;59.860;30.672;2023-03-26T01:27:54;99348.97;;;0.83;100.00
53758;BME280;39674;59.860;30.672;2023-03-26T01:30:45;99337.75;;;0.80;100.00
53758;BME280;39674;59.860;30.672;2023-03-26T01:33:19;99340.41;;;0.79;100.00
53758;BME280;39674;59.860;30.672;2023-03-26T01:35:56;99334.34;;;0.78;100.00
53758;BME280;39674;59.860;30.672;2023-03-26T01:38:27;99336.06;;;0.79;100.00
53758;BME280;39674;59.860;30.672;2023-03-26T01:41:04;99316.97;;;0.80;100.00
53758;BME280;39674;59.860;30.672;2023-03-26T01:43:38;99322.09;;;0.84;100.00
53758;BME280;39674;59.860;30.672;2023-03-26T01:46:08;99323.78;;;0.85;100.00
53758;BME280;39674;59.860;30.672;2023-03-26T01:48:39;99324.56;;;0.87;100.00
53758;BME280;39674;59.860;30.672;2023-03-26T01:51:09;99327.06;;;0.90;100.00
53758;BME280;39674;59.860;30.672;2023-03-26T01:53:39;99319.22;;;0.91;100.00
53758;BME280;39674;59.860;30.672;2023-03-26T01:56:12;99337.34;;;0.93;100.00
53758;BME280;39674;59.860;30.672;2023-03-26T01:58:48;99354.66;;;0.94;100.00
53758;BME280;39674;59.860;30.672;2023-03-26T02:01:25;99358.06;;;0.96;100.00
53758;BME280;39674;59.860;30.672;2023-03-26T02:03:57;99353.63;;;0.98;100.00
53758;BME280;39674;59.860;30.672;2023-03-26T02:06:30;99340.63;;;0.98;100.00
53758;BME280;39674;59.860;30.672;2023-03-26T02:09:03;99334.53;;;0.99;100.00
53758;BME280;39674;59.860;30.672;2023-03-26T02:11:35;99349.25;;;1.00;100.00
53758;BME280;39674;59.860;30.672;2023-03-26T02:14:08;99349.25;;;1.00;100.00
53758;BME280;39674;59.860;30.672;2023-03-26T02:16:47;99345.75;;;1.01;100.00
53758;BME280;39674;59.860;30.672;2023-03-26T02:19:20;99337.06;;;1.02;100.00
53758;BME280;39674;59.860;30.672;2023-03-26T02:21:53;99344.84;;;1.02;100.00
53758;BME280;39674;59.860;30.672;2023-03-26T02:24:32;99348.34;;;1.01;100.00
53758;BME280;39674;59.860;30.672;2023-03-26T02:27:16;99351.84;;;1.00;100.00
53758;BME280;39674;59.860;30.672;2023-03-26T02:29:50;99344.91;;;1.01;100.00
53758;BME280;39674;59.860;30.672;2023-03-26T02:32:24;99341.44;;;1.00;100.00
53758;BME280;39674;59.860;30.672;2023-03-26T02:35:01;99340.63;;;0.98;100.00
53758;BME280;39674;59.860;30.672;2023-03-26T02:37:32;99337.13;;;0.99;100.00
53758;BME280;39674;59.860;30.672;2023-03-26T02:40:13;99334.66;;;0.96;100.00
53758;BME280;39674;59.860;30.672;2023-03-26T02:42:53;99336.38;;;0.95;100.00
53758;BME280;39674;59.860;30.672;2023-03-26T02:45:28;99341.59;;;0.95;100.00
53758;BME280;39674;59.860;30.672;2023-03-26T02:48:13;99338.97;;;0.97;100.00
53758;BME280;39674;59.860;30.672;2023-03-26T02:51:20;99337.13;;;0.99;100.00
53758;BME280;39674;59.860;30.672;2023-03-26T02:54:26;99335.44;;;0.98;100.00
53758;BME280;39674;59.860;30.672;2023-03-26T02:57:20;99340.63;;;0.98;100.00
53758;BME280;39674;59.860;30.672;2023-03-26T03:00:20;99331.09;;;0.99;100.00
53758;BME280;39674;59.860;30.672;2023-03-26T03:02:57;99344.09;;;0.99;100.00
53758;BME280;39674;59.860;30.672;2023-03-26T03:06:31;99337.13;;;0.99;100.00
53758;BME280;39674;59.860;30.672;2023-03-26T03:09:04;99337.13;;;0.99;100.00
53758;BME280;39674;59.860;30.672;2023-03-26T03:12:01;99338.03;;;0.98;100.00
53758;BME280;39674;59.860;30.672;2023-03-26T03:14:33;99336.38;;;0.97;100.00
53758;BME280;39674;59.860;30.672;2023-03-26T03:17:10;99340.69;;;0.96;100.00
53758;BME280;39674;59.860;30.672;2023-03-26T03:19:45;99341.59;;;0.95;100.00
53758;BME280;39674;59.860;30.672;2023-03-26T03:22:26;99332.91;;;0.96;100.00
53758;BME280;39674;59.860;30.672;2023-03-26T03:25:14;99330.34;;;0.95;100.00
53758;BME280;39674;59.860;30.672;2023-03-26T03:27:48;99330.34;;;0.95;100.00
53758;BME280;39674;59.860;30.672;2023-03-26T03:30:31;99324.31;;;0.94;100.00
53758;BME280;39674;59.860;30.672;2023-03-26T03:33:23;99325.16;;;0.95;100.00
53758;BME280;39674;59.860;30.672;2023-03-26T03:35:59;99326.00;;;0.95;100.00
53758;BME280;39674;59.860;30.672;2023-03-26T03:38:39;99333.03;;;0.93;100.00
53758;BME280;39674;59.860;30.672;2023-03-26T03:41:12;99332.16;;;0.93;100.00
53758;BME280;39674;59.860;30.672;2023-03-26T03:43:50;99335.66;;;0.92;100.00
53758;BME280;39674;59.860;30.672;2023-03-26T03:46:26;99330.44;;;0.92;100.00
53758;BME280;39674;59.860;30.672;2023-03-26T03:49:05;99327.06;;;0.90;100.00
53758;BME280;39674;59.860;30.672;2023-03-26T03:51:38;99329.69;;;0.88;100.00
53758;BME280;39674;59.860;30.672;2023-03-26T03:54:25;99330.63;;;0.87;100.00
53758;BME280;39674;59.860;30.672;2023-03-26T03:57:17;99331.47;;;0.88;100.00
53758;BME280;39674;59.860;30.672;2023-03-26T04:00:19;99335.75;;;0.89;100.00
53758;BME280;39674;59.860;30.672;2023-03-26T04:03:20;99318.47;;;0.88;100.00
53758;BME280;39674;59.860;30.672;2023-03-26T04:05:51;99323.66;;;0.88;100.00
53758;BME280;39674;59.860;30.672;2023-03-26T04:08:48;99325.38;;;0.89;100.00
53758;BME280;39674;59.860;30.672;2023-03-26T04:11:27;99324.47;;;0.90;100.00
53758;BME280;39674;59.860;30.672;2023-03-26T04:14:36;99326.94;;;0.93;100.00
53758;BME280;39674;59.860;30.672;2023-03-26T04:17:21;99319.06;;;0.96;100.00
53758;BME280;39674;59.860;30.672;2023-03-26T04:19:57;99318.03;;;1.00;100.00
53758;BME280;39674;59.860;30.672;2023-03-26T04:22:57;99324.00;;;1.04;100.00
53758;BME280;39674;59.860;30.672;2023-03-26T04:25:46;99320.44;;;1.06;100.00
53758;BME280;39674;59.860;30.672;2023-03-26T04:28:24;99311.66;;;1.09;100.00
53758;BME280;39674;59.860;30.672;2023-03-26T04:31:38;99315.81;;;1.15;100.00
53758;BME280;39674;59.860;30.672;2023-03-26T04:34:14;99312.19;;;1.19;100.00
53758;BME280;39674;59.860;30.672;2023-03-26T04:37:00;99313.69;;;1.26;100.00
53758;BME280;39674;59.860;30.672;2023-03-26T04:39:35;99316.97;;;1.31;100.00
53758;BME280;39674;59.860;30.672;2023-03-26T04:42:25;99311.66;;;1.34;100.00
53758;BME280;39674;59.860;30.672;2023-03-26T04:45:17;99307.94;;;1.41;100.00
53758;BME280;39674;59.860;30.672;2023-03-26T04:47:55;99315.50;;;1.48;100.00
53758;BME280;39674;59.860;30.672;2023-03-26T04:50:31;99313.66;;;1.51;100.00
53758;BME280;39674;59.860;30.672;2023-03-26T04:53:09;99312.53;;;1.58;100.00
53758;BME280;39674;59.860;30.672;2023-03-26T04:56:31;99304.59;;;1.62;100.00
53758;BME280;39674;59.860;30.672;2023-03-26T04:59:32;99307.03;;;1.66;100.00
53758;BME280;39674;59.860;30.672;2023-03-26T05:02:09;99302.78;;;1.64;100.00
53758;BME280;39674;59.860;30.672;2023-03-26T05:04:49;99301.03;;;1.64;100.00
53758;BME280;39674;59.860;30.672;2023-03-26T05:07:20;99297.44;;;1.67;100.00
53758;BME280;39674;59.860;30.672;2023-03-26T05:10:11;99312.88;;;1.73;100.00
53758;BME280;39674;59.860;30.672;2023-03-26T05:12:54;99316.31;;;1.73;100.00
53758;BME280;39674;59.860;30.672;2023-03-26T05:15:32;99317.94;;;1.76;100.00
53758;BME280;39674;59.860;30.672;2023-03-26T05:18:11;99314.19;;;1.83;100.00
53758;BME280;39674;59.860;30.672;2023-03-26T05:20:43;99320.25;;;1.84;100.00
53758;BME280;39674;59.860;30.672;2023-03-26T05:23:19;99313.22;;;1.86;100.00
53758;BME280;39674;59.860;30.672;2023-03-26T05:25:55;99313.22;;;1.86;100.00
53758;BME280;39674;59.860;30.672;2023-03-26T05:28:27;99304.38;;;1.90;100.00
53758;BME280;39674;59.860;30.672;2023-03-26T05:31:14;99311.19;;;1.94;100.00
53758;BME280;39674;59.860;30.672;2023-03-26T05:33:53;99299.63;;;2.01;100.00
53758;BME280;39674;59.860;30.672;2023-03-26T05:36:25;99304.66;;;2.06;100.00
53758;BME280;39674;59.860;30.672;2023-03-26T05:39:28;99307.69;;;2.17;100.00
53758;BME280;39674;59.860;30.672;2023-03-26T05:45:39;99297.28;;;2.17;100.00
53758;BME280;39674;59.860;30.672;2023-03-26T05:48:22;99297.94;;;2.22;100.00
53758;BME280;39674;59.860;30.672;2023-03-26T05:50:57;99304.66;;;2.28;100.00
53758;BME280;39674;59.860;30.672;2023-03-26T05:53:27;99302.72;;;2.33;100.00
53758;BME280;39674;59.860;30.672;2023-03-26T05:56:33;99316.06;;;2.48;100.00
53758;BME280;39674;59.860;30.672;2023-03-26T05:59:29;99320.31;;;2.49;100.00
53758;BME280;39674;59.860;30.672;2023-03-26T06:02:39;99319.41;;;2.50;100.00
53758;BME280;39674;59.860;30.672;2023-03-26T06:05:48;99319.31;;;2.53;100.00
53758;BME280;39674;59.860;30.672;2023-03-26T06:08:34;99325.25;;;2.56;100.00
53758;BME280;39674;59.860;30.672;2023-03-26T06:11:05;99323.47;;;2.57;100.00
53758;BME280;39674;59.860;30.672;2023-03-26T06:13:38;99326.94;;;2.58;100.00
53758;BME280;39674;59.860;30.672;2023-03-26T06:16:08;99327.78;;;2.58;100.00
53758;BME280;39674;59.860;30.672;2023-03-26T06:18:45;99333.97;;;2.55;100.00
53758;BME280;39674;59.860;30.672;2023-03-26T06:21:16;99325.44;;;2.52;100.00
53758;BME280;39674;59.860;30.672;2023-03-26T06:23:52;99326.22;;;2.54;100.00
53758;BME280;39674;59.860;30.672;2023-03-26T06:26:42;99310.59;;;2.54;100.00
53758;BME280;39674;59.860;30.672;2023-03-26T06:29:22;99317.47;;;2.55;100.00
53758;BME280;39674;59.860;30.672;2023-03-26T06:31:56;99321.78;;;2.56;100.00
53758;BME280;39674;59.860;30.672;2023-03-26T06:34:36;99325.25;;;2.56;100.00
53758;BME280;39674;59.860;30.672;2023-03-26T06:37:07;99322.56;;;2.58;100.00
53758;BME280;39674;59.860;30.672;2023-03-26T06:39:47;99319.06;;;2.59;100.00
53758;BME280;39674;59.860;30.672;2023-03-26T06:42:29;99324.13;;;2.62;100.00
53758;BME280;39674;59.860;30.672;2023-03-26T06:45:18;99327.28;;;2.70;100.00
53758;BME280;39674;59.860;30.672;2023-03-26T06:48:28;99323.63;;;2.75;100.00
53758;BME280;39674;59.860;30.672;2023-03-26T06:51:30;99323.59;;;2.76;100.00
53758;BME280;39674;59.860;30.672;2023-03-26T06:54:23;99323.38;;;2.81;100.00
53758;BME280;39674;59.860;30.672;2023-03-26T06:57:03;99323.13;;;2.87;100.00
53758;BME280;39674;59.860;30.672;2023-03-26T06:59:37;99325.53;;;2.92;100.00
53758;BME280;39674;59.860;30.672;2023-03-26T07:02:24;99328.66;;;3.00;100.00
53758;BME280;39674;59.860;30.672;2023-03-26T07:05:11;99331.09;;;3.04;100.00
53758;BME280;39674;59.860;30.672;2023-03-26T07:07:59;99332.78;;;3.05;100.00
53758;BME280;39674;59.860;30.672;2023-03-26T07:10:46;99327.41;;;3.09;100.00
53758;BME280;39674;59.860;30.672;2023-03-26T07:13:37;99332.53;;;3.12;100.00
53758;BME280;39674;59.860;30.672;2023-03-26T07:16:25;99324.50;;;3.16;100.00
53758;BME280;39674;59.860;30.672;2023-03-26T07:19:11;99324.28;;;3.21;100.00
53758;BME280;39674;59.860;30.672;2023-03-26T07:21:41;99322.47;;;3.23;100.00
53758;BME280;39674;59.860;30.672;2023-03-26T07:24:34;99320.50;;;3.28;100.00
53758;BME280;39674;59.860;30.672;2023-03-26T07:27:44;99317.63;;;3.34;100.00
53758;BME280;39674;59.860;30.672;2023-03-26T07:30:23;99320.03;;;3.39;100.00
53758;BME280;39674;59.860;30.672;2023-03-26T07:33:17;99324.13;;;3.45;100.00
53758;BME280;39674;59.860;30.672;2023-03-26T07:36:03;99332.72;;;3.47;100.00
53758;BME280;39674;59.860;30.672;2023-03-26T07:38:54;99339.53;;;3.51;100.00
53758;BME280;39674;59.860;30.672;2023-03-26T07:41:56;99331.63;;;3.52;100.00
53758;BME280;39674;59.860;30.672;2023-03-26T07:44:47;99325.28;;;3.58;100.00
53758;BME280;39674;59.860;30.672;2023-03-26T07:47:58;99338.00;;;3.66;100.00
53758;BME280;39674;59.860;30.672;2023-03-26T07:50:50;99343.78;;;3.73;100.00
53758;BME280;39674;59.860;30.672;2023-03-26T07:53:28;99342.72;;;3.77;100.00
53758;BME280;39674;59.860;30.672;2023-03-26T07:56:13;99337.34;;;3.80;100.00
53758;BME280;39674;59.860;30.672;2023-03-26T07:59:18;99343.22;;;3.85;100.00
53758;BME280;39674;59.860;30.672;2023-03-26T08:02:19;99351.72;;;3.90;100.00
53758;BME280;39674;59.860;30.672;2023-03-26T08:05:09;99347.31;;;3.91;100.00
53758;BME280;39674;59.860;30.672;2023-03-26T08:08:06;99350.13;;;3.86;100.00
53758;BME280;39674;59.860;30.672;2023-03-26T08:10:46;99359.66;;;3.87;100.00
53758;BME280;39674;59.860;30.672;2023-03-26T08:13:20;99364.81;;;3.89;100.00
53758;BME280;39674;59.860;30.672;2023-03-26T08:15:55;99361.44;;;3.87;100.00
53758;BME280;39674;59.860;30.672;2023-03-26T08:18:30;99350.13;;;3.86;100.00
53758;BME280;39674;59.860;30.672;2023-03-26T08:21:02;99351.84;;;3.87;100.00
53758;BME280;39674;59.860;30.672;2023-03-26T08:23:34;99348.31;;;3.88;100.00
53758;BME280;39674;59.860;30.672;2023-03-26T08:26:06;99347.31;;;3.91;100.00
53758;BME280;39674;59.860;30.672;2023-03-26T08:28:44;99352.06;;;4.01;100.00
53758;BME280;39674;59.860;30.672;2023-03-26T08:31:29;99358.19;;;4.00;100.00
53758;BME280;39674;59.860;30.672;2023-03-26T08:34:00;99357.84;;;3.89;100.00
53758;BME280;39674;59.860;30.672;2023-03-26T08:36:28;99351.84;;;3.87;100.00
53758;BME280;39674;59.860;30.672;2023-03-26T08:38:59;99354.44;;;3.87;100.00
53758;BME280;39674;59.860;30.672;2023-03-26T08:41:33;99350.00;;;3.89;100.00
53758;BME280;39674;59.860;30.672;2023-03-26T08:47:19;99349.72;;;3.95;100.00
53758;BME280;39674;59.860;30.672;2023-03-26T08:50:09;99353.97;;;3.98;100.00
53758;BME280;39674;59.860;30.672;2023-03-26T08:55:33;99349.44;;;4.01;100.00
53758;BME280;39674;59.860;30.672;2023-03-26T09:00:58;99356.09;;;4.09;100.00
53758;BME280;39674;59.860;30.672;2023-03-26T09:14:55;99350.41;;;3.80;100.00
53758;BME280;39674;59.860;30.672;2023-03-26T09:17:36;99352.53;;;3.72;100.00
53758;BME280;39674;59.860;30.672;2023-03-26T09:25:55;99342.63;;;3.59;100.00
53758;BME280;39674;59.860;30.672;2023-03-26T09:31:42;99357.81;;;3.51;100.00
53758;BME280;39674;59.860;30.672;2023-03-26T09:34:26;99357.09;;;3.47;100.00
53758;BME280;39674;59.860;30.672;2023-03-26T09:37:05;99359.69;;;3.47;100.00
53758;BME280;39674;59.860;30.672;2023-03-26T09:39:41;99364.22;;;3.44;100.00
53758;BME280;39674;59.860;30.672;2023-03-26T09:42:15;99367.84;;;3.40;100.00
53758;BME280;39674;59.860;30.672;2023-03-26T09:44:58;99368.81;;;3.37;100.00
53758;BME280;39674;59.860;30.672;2023-03-26T09:50:25;99374.19;;;3.34;100.00
53758;BME280;39674;59.860;30.672;2023-03-26T09:52:59;99376.00;;;3.32;100.00
53758;BME280;39674;59.860;30.672;2023-03-26T09:55:32;99375.19;;;3.31;100.00
53758;BME280;39674;59.860;30.672;2023-03-26T10:00:52;99385.53;;;3.33;100.00
53758;BME280;39674;59.860;30.672;2023-03-26T10:03:38;99379.41;;;3.34;100.00
53758;BME280;39674;59.860;30.672;2023-03-26T10:06:17;99379.34;;;3.35;100.00
53758;BME280;39674;59.860;30.672;2023-03-26T10:08:58;99381.94;;;3.35;100.00
53758;BME280;39674;59.860;30.672;2023-03-26T10:11:33;99374.91;;;3.37;100.00
53758;BME280;39674;59.860;30.672;2023-03-26T10:14:09;99376.72;;;3.35;100.00
53758;BME280;39674;59.860;30.672;2023-03-26T10:16:51;99375.22;;;3.30;100.00
53758;BME280;39674;59.860;30.672;2023-03-26T10:19:29;99385.88;;;3.25;100.00
53758;BME280;39674;59.860;30.672;2023-03-26T10:22:17;99380.84;;;3.20;100.00
53758;BME280;39674;59.860;30.672;2023-03-26T10:25:03;99378.16;;;3.22;100.00
53758;BME280;39674;59.860;30.672;2023-03-26T10:27:37;99384.28;;;3.21;100.00
53758;BME280;39674;59.860;30.672;2023-03-26T10:35:51;99400.47;;;3.09;100.00
53758;BME280;39674;59.860;30.672;2023-03-26T10:38:28;99398.78;;;3.08;100.00
53758;BME280;39674;59.860;30.672;2023-03-26T10:41:03;99394.59;;;3.03;100.00
53758;BME280;39674;59.860;30.672;2023-03-26T10:43:55;99394.72;;;3.00;100.00
53758;BME280;39674;59.860;30.672;2023-03-26T10:46:35;99395.75;;;2.96;100.00
53758;BME280;39674;59.860;30.672;2023-03-26T10:51:58;99401.13;;;2.93;100.00
53758;BME280;39674;59.860;30.672;2023-03-26T10:54:43;99395.13;;;2.91;100.00
53758;BME280;39674;59.860;30.672;2023-03-26T10:57:17;99397.81;;;2.88;100.00
53758;BME280;39674;59.860;30.672;2023-03-26T11:00:11;99397.06;;;2.86;100.00
53758;BME280;39674;59.860;30.672;2023-03-26T11:02:43;99401.47;;;2.84;100.00
53758;BME280;39674;59.860;30.672;2023-03-26T11:05:24;99398.09;;;2.82;100.00
53758;BME280;39674;59.860;30.672;2023-03-26T11:07:58;99398.09;;;2.82;100.00
53758;BME280;39674;59.860;30.672;2023-03-26T11:10:33;99398.97;;;2.81;100.00
53758;BME280;39674;59.860;30.672;2023-03-26T11:13:06;99396.38;;;2.81;100.00
53758;BME280;39674;59.860;30.672;2023-03-26T11:18:27;99396.69;;;2.73;100.00
53758;BME280;39674;59.860;30.672;2023-03-26T11:21:07;99404.59;;;2.71;100.00
53758;BME280;39674;59.860;30.672;2023-03-26T11:23:39;99403.78;;;2.69;100.00
53758;BME280;39674;59.860;30.672;2023-03-26T11:26:21;99402.97;;;2.69;100.00
53758;BME280;39674;59.860;30.672;2023-03-26T11:29:09;99405.50;;;2.70;100.00
53758;BME280;39674;59.860;30.672;2023-03-26T11:31:46;99404.69;;;2.68;100.00
53758;BME280;39674;59.860;30.672;2023-03-26T11:34:20;99402.22;;;2.65;100.00
53758;BME280;39674;59.860;30.672;2023-03-26T11:36:51;99397.13;;;2.62;100.00
53758;BME280;39674;59.860;30.672;2023-03-26T11:39:23;99404.09;;;2.62;100.00
53758;BME280;39674;59.860;30.672;2023-03-26T11:41:58;99399.06;;;2.57;100.00
53758;BME280;39674;59.860;30.672;2023-03-26T11:44:52;99401.03;;;2.52;100.00
53758;BME280;39674;59.860;30.672;2023-03-26T11:47:23;99402.00;;;2.49;100.00
53758;BME280;39674;59.860;30.672;2023-03-26T11:49:57;99402.00;;;2.49;100.00
53758;BME280;39674;59.860;30.672;2023-03-26T11:52:29;99393.38;;;2.47;100.00
53758;BME280;39674;59.860;30.672;2023-03-26T11:54:58;99401.25;;;2.46;100.00
53758;BME280;39674;59.860;30.672;2023-03-26T11:57:28;99403.94;;;2.44;100.00
53758;BME280;39674;59.860;30.672;2023-03-26T11:59:59;99404.75;;;2.45;100.00
53758;BME280;39674;59.860;30.672;2023-03-26T12:02:39;99397.75;;;2.47;100.00
53758;BME280;39674;59.860;30.672;2023-03-26T12:05:20;99402.06;;;2.48;100.00
53758;BME280;39674;59.860;30.672;2023-03-26T12:07:53;99402.81;;;2.50;100.00
53758;BME280;39674;59.860;30.672;2023-03-26T12:10:23;99403.69;;;2.50;100.00
53758;BME280;39674;59.860;30.672;2023-03-26T12:12:55;99405.44;;;2.50;100.00
53758;BME280;39674;59.860;30.672;2023-03-26T12:15:24;99405.59;;;2.45;100.00
53758;BME280;39674;59.860;30.672;2023-03-26T12:17:54;99408.22;;;2.45;100.00
53758;BME280;39674;59.860;30.672;2023-03-26T12:20:29;99406.56;;;2.43;100.00
53758;BME280;39674;59.860;30.672;2023-03-26T12:22:59;99405.66;;;2.44;100.00
53758;BME280;39674;59.860;30.672;2023-03-26T12:25:30;99406.72;;;2.39;100.00
53758;BME280;39674;59.860;30.672;2023-03-26T12:28:01;99408.41;;;2.40;100.00
53758;BME280;39674;59.860;30.672;2023-03-26T12:30:30;99406.72;;;2.39;100.00
53758;BME280;39674;59.860;30.672;2023-03-26T12:33:00;99408.44;;;2.39;100.00
53758;BME280;39674;59.860;30.672;2023-03-26T12:35:30;99406.72;;;2.39;100.00
53758;BME280;39674;59.860;30.672;2023-03-26T12:38:15;99409.41;;;2.36;100.00
53758;BME280;39674;59.860;30.672;2023-03-26T12:40:46;99412.19;;;2.32;100.00
53758;BME280;39674;59.860;30.672;2023-03-26T12:43:24;99412.41;;;2.27;100.00
53758;BME280;39674;59.860;30.672;2023-03-26T12:45:57;99403.69;;;2.28;100.00
53758;BME280;39674;59.860;30.672;2023-03-26T12:48:28;99406.31;;;2.27;100.00
53758;BME280;39674;59.860;30.672;2023-03-26T12:51:02;99401.19;;;2.25;100.00
53758;BME280;39674;59.860;30.672;2023-03-26T12:53:37;99405.34;;;2.29;100.00
53758;BME280;39674;59.860;30.672;2023-03-26T12:56:16;99406.28;;;2.28;100.00
53758;BME280;39674;59.860;30.672;2023-03-26T12:58:57;99409.00;;;2.25;100.00
53758;BME280;39674;59.860;30.672;2023-03-26T13:01:31;99407.41;;;2.21;100.00
53758;BME280;39674;59.860;30.672;2023-03-26T13:04:08;99406.63;;;2.19;100.00
53758;BME280;39674;59.860;30.672;2023-03-26T13:06:40;99406.69;;;2.17;100.00
53758;BME280;39674;59.860;30.672;2023-03-26T13:09:17;99404.25;;;2.13;100.00
53758;BME280;39674;59.860;30.672;2023-03-26T13:11:54;99405.09;;;2.13;100.00
53758;BME280;39674;59.860;30.672;2023-03-26T13:14:36;99406.91;;;2.11;100.00
53758;BME280;39674;59.860;30.672;2023-03-26T13:17:09;99398.25;;;2.11;100.00
53758;BME280;39674;59.860;30.672;2023-03-26T13:19:41;99400.84;;;2.11;100.00
53758;BME280;39674;59.860;30.672;2023-03-26T13:22:15;99406.06;;;2.11;100.00
53758;BME280;39674;59.860;30.672;2023-03-26T13:24:49;99406.94;;;2.09;100.00
53758;BME280;39674;59.860;30.672;2023-03-26T13:27:32;99411.25;;;2.11;100.00
53758;BME280;39674;59.860;30.672;2023-03-26T13:30:06;99412.16;;;2.09;100.00
53758;BME280;39674;59.860;30.672;2023-03-26T13:32:46;99413.09;;;2.08;100.00
53758;BME280;39674;59.860;30.672;2023-03-26T13:35:25;99404.47;;;2.06;100.00
53758;BME280;39674;59.860;30.672;2023-03-26T13:37:55;99398.53;;;2.03;100.00
53758;BME280;39674;59.860;30.672;2023-03-26T13:40:28;99404.72;;;2.00;100.00
53758;BME280;39674;59.860;30.672;2023-03-26T13:43:11;99403.00;;;1.99;100.00
53758;BME280;39674;59.860;30.672;2023-03-26T13:45:57;99403.09;;;1.96;100.00
53758;BME280;39674;59.860;30.672;2023-03-26T13:48:30;99406.69;;;1.93;100.00
53758;BME280;39674;59.860;30.672;2023-03-26T13:51:02;99401.66;;;1.89;100.00
53758;BME280;39674;59.860;30.672;2023-03-26T13:53:42;99413.88;;;1.87;100.00
53758;BME280;39674;59.860;30.672;2023-03-26T13:56:12;99408.75;;;1.84;100.00
53758;BME280;39674;59.860;30.672;2023-03-26T13:58:43;99411.50;;;1.81;100.00
53758;BME280;39674;59.860;30.672;2023-03-26T14:01:18;99408.09;;;1.79;100.00
53758;BME280;39674;59.860;30.672;2023-03-26T14:03:51;99408.25;;;1.74;100.00
53758;BME280;39674;59.860;30.672;2023-03-26T14:06:29;99403.91;;;1.74;100.00
53758;BME280;39674;59.860;30.672;2023-03-26T14:09:04;99400.63;;;1.69;100.00
53758;BME280;39674;59.860;30.672;2023-03-26T14:11:38;99406.78;;;1.67;100.00
53758;BME280;39674;59.860;30.672;2023-03-26T14:14:16;99402.53;;;1.64;100.00
53758;BME280;39674;59.860;30.672;2023-03-26T14:16:48;99402.66;;;1.61;100.00
53758;BME280;39674;59.860;30.672;2023-03-26T14:19:25;99410.53;;;1.59;100.00
53758;BME280;39674;59.860;30.672;2023-03-26T14:22:02;99409.78;;;1.56;100.00
53758;BME280;39674;59.860;30.672;2023-03-26T14:24:42;99401.91;;;1.57;100.00
53758;BME280;39674;59.860;30.672;2023-03-26T14:27:24;99402.06;;;1.53;100.00
53758;BME280;39674;59.860;30.672;2023-03-26T14:30:21;99394.25;;;1.53;100.00
53758;BME280;39674;59.860;30.672;2023-03-26T14:33:00;99399.47;;;1.53;100.00
53758;BME280;39674;59.860;30.672;2023-03-26T14:35:33;99393.44;;;1.51;100.00
53758;BME280;39674;59.860;30.672;2023-03-26T14:38:14;99389.94;;;1.52;100.00
53758;BME280;39674;59.860;30.672;2023-03-26T14:40:51;99392.78;;;1.46;100.00
53758;BME280;39674;59.860;30.672;2023-03-26T14:43:37;99387.69;;;1.42;100.00
53758;BME280;39674;59.860;30.672;2023-03-26T14:46:14;99385.25;;;1.38;100.00
53758;BME280;39674;59.860;30.672;2023-03-26T14:48:54;99390.44;;;1.38;100.00
53758;BME280;39674;59.860;30.672;2023-03-26T14:51:34;99394.91;;;1.34;100.00
53758;BME280;39674;59.860;30.672;2023-03-26T14:54:07;99394.09;;;1.32;100.00
53758;BME280;39674;59.860;30.672;2023-03-26T14:56:41;99396.63;;;1.35;100.00
53758;BME280;39674;59.860;30.672;2023-03-26T14:59:36;99392.41;;;1.31;100.00
53758;BME280;39674;59.860;30.672;2023-03-26T15:05:17;99402.88;;;1.30;100.00